sensor_id;sensor_type;location;lat;lon;timestamp;P1;durP1;ratioP1;P2;durP2;ratioP2
52730;SDS011;38624;53.242;6.974;2023-12-28T00:00:05;5.80;;;3.17;;
52730;SDS011;38624;53.242;6.974;2023-12-28T00:02:32;5.60;;;3.72;;
52730;SDS011;38624;53.242;6.974;2023-12-28T00:04:58;6.07;;;3.40;;
52730;SDS011;38624;53.242;6.974;2023-12-28T00:07:23;5.78;;;3.40;;
52730;SDS011;38624;53.242;6.974;2023-12-28T00:09:49;8.52;;;3.53;;
52730;SDS011;38624;53.242;6.974;2023-12-28T00:12:15;6.63;;;3.47;;
52730;SDS011;38624;53.242;6.974;2023-12-28T00:14:40;6.30;;;3.67;;
52730;SDS011;38624;53.242;6.974;2023-12-28T00:17:06;6.38;;;3.45;;
52730;SDS011;38624;53.242;6.974;2023-12-28T00:19:32;6.63;;;4.00;;
52730;SDS011;38624;53.242;6.974;2023-12-28T00:21:57;5.85;;;3.88;;
52730;SDS011;38624;53.242;6.974;2023-12-28T00:24:23;5.07;;;3.25;;
52730;SDS011;38624;53.242;6.974;2023-12-28T00:26:49;6.50;;;3.88;;
52730;SDS011;38624;53.242;6.974;2023-12-28T00:29:14;6.13;;;3.85;;
52730;SDS011;38624;53.242;6.974;2023-12-28T00:31:40;7.18;;;4.28;;
52730;SDS011;38624;53.242;6.974;2023-12-28T00:34:06;6.75;;;3.80;;
52730;SDS011;38624;53.242;6.974;2023-12-28T00:36:31;5.88;;;3.80;;
52730;SDS011;38624;53.242;6.974;2023-12-28T00:38:57;7.57;;;3.80;;
52730;SDS011;38624;53.242;6.974;2023-12-28T00:41:23;8.52;;;3.97;;
52730;SDS011;38624;53.242;6.974;2023-12-28T00:43:49;6.18;;;4.00;;
52730;SDS011;38624;53.242;6.974;2023-12-28T00:46:14;6.35;;;4.45;;
52730;SDS011;38624;53.242;6.974;2023-12-28T00:48:40;5.75;;;4.00;;
52730;SDS011;38624;53.242;6.974;2023-12-28T00:51:06;5.75;;;4.15;;
52730;SDS011;38624;53.242;6.974;2023-12-28T00:53:32;7.80;;;4.20;;
52730;SDS011;38624;53.242;6.974;2023-12-28T00:55:57;7.20;;;4.18;;
52730;SDS011;38624;53.242;6.974;2023-12-28T00:58:23;7.97;;;4.22;;
52730;SDS011;38624;53.242;6.974;2023-12-28T01:00:49;7.75;;;4.05;;
52730;SDS011;38624;53.242;6.974;2023-12-28T01:03:18;6.63;;;4.45;;
52730;SDS011;38624;53.242;6.974;2023-12-28T01:05:45;5.57;;;3.83;;
52730;SDS011;38624;53.242;6.974;2023-12-28T01:08:12;7.97;;;4.20;;
52730;SDS011;38624;53.242;6.974;2023-12-28T01:10:38;6.90;;;3.92;;
52730;SDS011;38624;53.242;6.974;2023-12-28T01:13:04;5.78;;;4.10;;
52730;SDS011;38624;53.242;6.974;2023-12-28T01:15:29;8.38;;;3.85;;
52730;SDS011;38624;53.242;6.974;2023-12-28T01:17:55;9.20;;;4.50;;
52730;SDS011;38624;53.242;6.974;2023-12-28T01:20:21;7.78;;;4.45;;
52730;SDS011;38624;53.242;6.974;2023-12-28T01:22:47;8.35;;;4.57;;
52730;SDS011;38624;53.242;6.974;2023-12-28T01:25:14;11.35;;;4.78;;
52730;SDS011;38624;53.242;6.974;2023-12-28T01:27:40;7.32;;;4.40;;
52730;SDS011;38624;53.242;6.974;2023-12-28T01:30:06;7.40;;;3.97;;
52730;SDS011;38624;53.242;6.974;2023-12-28T01:32:32;14.23;;;5.43;;
52730;SDS011;38624;53.242;6.974;2023-12-28T01:34:58;8.18;;;4.40;;
52730;SDS011;38624;53.242;6.974;2023-12-28T01:37:23;10.20;;;4.40;;
52730;SDS011;38624;53.242;6.974;2023-12-28T01:39:49;7.85;;;4.07;;
52730;SDS011;38624;53.242;6.974;2023-12-28T01:42:15;8.23;;;4.60;;
52730;SDS011;38624;53.242;6.974;2023-12-28T01:44:40;8.45;;;4.53;;
52730;SDS011;38624;53.242;6.974;2023-12-28T01:47:06;8.73;;;4.30;;
52730;SDS011;38624;53.242;6.974;2023-12-28T01:49:32;9.02;;;4.35;;
52730;SDS011;38624;53.242;6.974;2023-12-28T01:52:00;9.95;;;4.57;;
52730;SDS011;38624;53.242;6.974;2023-12-28T01:54:26;8.77;;;4.13;;
52730;SDS011;38624;53.242;6.974;2023-12-28T01:56:52;8.13;;;4.55;;
52730;SDS011;38624;53.242;6.974;2023-12-28T01:59:18;9.77;;;4.65;;
52730;SDS011;38624;53.242;6.974;2023-12-28T02:01:44;8.30;;;4.32;;
52730;SDS011;38624;53.242;6.974;2023-12-28T02:04:11;13.65;;;4.30;;
52730;SDS011;38624;53.242;6.974;2023-12-28T02:06:37;13.55;;;4.82;;
52730;SDS011;38624;53.242;6.974;2023-12-28T02:09:03;7.32;;;3.97;;
52730;SDS011;38624;53.242;6.974;2023-12-28T02:11:29;10.70;;;4.57;;
52730;SDS011;38624;53.242;6.974;2023-12-28T02:13:54;10.38;;;4.55;;
52730;SDS011;38624;53.242;6.974;2023-12-28T02:16:25;7.88;;;4.10;;
52730;SDS011;38624;53.242;6.974;2023-12-28T02:19:03;10.30;;;4.70;;
52730;SDS011;38624;53.242;6.974;2023-12-28T02:21:42;10.25;;;4.65;;
52730;SDS011;38624;53.242;6.974;2023-12-28T02:24:09;10.40;;;4.77;;
52730;SDS011;38624;53.242;6.974;2023-12-28T02:26:34;7.40;;;3.88;;
52730;SDS011;38624;53.242;6.974;2023-12-28T02:29:00;10.57;;;4.15;;
52730;SDS011;38624;53.242;6.974;2023-12-28T02:31:26;8.68;;;4.13;;
52730;SDS011;38624;53.242;6.974;2023-12-28T02:34:04;11.77;;;4.60;;
52730;SDS011;38624;53.242;6.974;2023-12-28T02:36:33;10.48;;;4.35;;
52730;SDS011;38624;53.242;6.974;2023-12-28T02:39:01;9.05;;;4.10;;
52730;SDS011;38624;53.242;6.974;2023-12-28T02:41:28;15.10;;;4.35;;
52730;SDS011;38624;53.242;6.974;2023-12-28T02:43:56;8.82;;;3.65;;
52730;SDS011;38624;53.242;6.974;2023-12-28T02:46:22;10.25;;;3.92;;
52730;SDS011;38624;53.242;6.974;2023-12-28T02:48:48;14.25;;;3.90;;
52730;SDS011;38624;53.242;6.974;2023-12-28T02:51:14;7.63;;;3.35;;
52730;SDS011;38624;53.242;6.974;2023-12-28T02:53:41;7.15;;;3.53;;
52730;SDS011;38624;53.242;6.974;2023-12-28T02:56:07;14.15;;;4.00;;
52730;SDS011;38624;53.242;6.974;2023-12-28T02:58:33;16.83;;;3.83;;
52730;SDS011;38624;53.242;6.974;2023-12-28T03:00:58;10.27;;;4.13;;
52730;SDS011;38624;53.242;6.974;2023-12-28T03:03:24;12.60;;;4.15;;
52730;SDS011;38624;53.242;6.974;2023-12-28T03:05:50;10.07;;;3.30;;
52730;SDS011;38624;53.242;6.974;2023-12-28T03:08:16;10.15;;;3.53;;
52730;SDS011;38624;53.242;6.974;2023-12-28T03:10:42;11.82;;;3.85;;
52730;SDS011;38624;53.242;6.974;2023-12-28T03:13:07;11.50;;;3.50;;
52730;SDS011;38624;53.242;6.974;2023-12-28T03:15:33;11.70;;;3.85;;
52730;SDS011;38624;53.242;6.974;2023-12-28T03:17:59;11.40;;;3.67;;
52730;SDS011;38624;53.242;6.974;2023-12-28T03:20:25;10.75;;;3.45;;
52730;SDS011;38624;53.242;6.974;2023-12-28T03:22:50;11.35;;;3.30;;
52730;SDS011;38624;53.242;6.974;2023-12-28T03:25:16;8.73;;;3.33;;
52730;SDS011;38624;53.242;6.974;2023-12-28T03:27:41;9.20;;;3.30;;
52730;SDS011;38624;53.242;6.974;2023-12-28T03:30:07;11.27;;;3.35;;
52730;SDS011;38624;53.242;6.974;2023-12-28T03:32:33;13.18;;;3.17;;
52730;SDS011;38624;53.242;6.974;2023-12-28T03:34:59;11.30;;;3.38;;
52730;SDS011;38624;53.242;6.974;2023-12-28T03:37:25;11.80;;;3.60;;
52730;SDS011;38624;53.242;6.974;2023-12-28T03:39:50;11.13;;;3.25;;
52730;SDS011;38624;53.242;6.974;2023-12-28T03:42:16;10.27;;;2.70;;
52730;SDS011;38624;53.242;6.974;2023-12-28T03:44:42;8.95;;;2.50;;
52730;SDS011;38624;53.242;6.974;2023-12-28T03:47:07;7.90;;;2.88;;
52730;SDS011;38624;53.242;6.974;2023-12-28T03:49:33;10.57;;;3.22;;
52730;SDS011;38624;53.242;6.974;2023-12-28T03:51:59;9.10;;;2.70;;
52730;SDS011;38624;53.242;6.974;2023-12-28T03:54:24;12.68;;;3.88;;
52730;SDS011;38624;53.242;6.974;2023-12-28T03:56:50;8.68;;;2.95;;
52730;SDS011;38624;53.242;6.974;2023-12-28T03:59:15;16.48;;;4.78;;
52730;SDS011;38624;53.242;6.974;2023-12-28T04:01:41;9.18;;;2.28;;
52730;SDS011;38624;53.242;6.974;2023-12-28T04:04:07;7.70;;;2.55;;
52730;SDS011;38624;53.242;6.974;2023-12-28T04:06:33;8.20;;;2.40;;
52730;SDS011;38624;53.242;6.974;2023-12-28T04:08:59;15.65;;;2.95;;
52730;SDS011;38624;53.242;6.974;2023-12-28T04:11:24;7.22;;;2.60;;
52730;SDS011;38624;53.242;6.974;2023-12-28T04:13:50;10.65;;;2.80;;
52730;SDS011;38624;53.242;6.974;2023-12-28T04:16:16;15.00;;;3.10;;
52730;SDS011;38624;53.242;6.974;2023-12-28T04:18:42;15.15;;;4.13;;
52730;SDS011;38624;53.242;6.974;2023-12-28T04:21:11;7.10;;;2.38;;
52730;SDS011;38624;53.242;6.974;2023-12-28T04:23:38;9.93;;;2.65;;
52730;SDS011;38624;53.242;6.974;2023-12-28T04:26:04;6.75;;;2.45;;
52730;SDS011;38624;53.242;6.974;2023-12-28T04:28:30;12.75;;;2.40;;
52730;SDS011;38624;53.242;6.974;2023-12-28T04:30:56;9.38;;;2.50;;
52730;SDS011;38624;53.242;6.974;2023-12-28T04:33:21;12.40;;;3.55;;
52730;SDS011;38624;53.242;6.974;2023-12-28T04:35:47;7.78;;;2.38;;
52730;SDS011;38624;53.242;6.974;2023-12-28T04:38:13;12.50;;;2.75;;
52730;SDS011;38624;53.242;6.974;2023-12-28T04:40:39;13.10;;;2.58;;
52730;SDS011;38624;53.242;6.974;2023-12-28T04:43:04;11.68;;;2.88;;
52730;SDS011;38624;53.242;6.974;2023-12-28T04:45:30;11.73;;;2.95;;
52730;SDS011;38624;53.242;6.974;2023-12-28T04:47:56;8.45;;;2.63;;
52730;SDS011;38624;53.242;6.974;2023-12-28T04:50:21;8.75;;;2.70;;
52730;SDS011;38624;53.242;6.974;2023-12-28T04:52:47;8.43;;;2.22;;
52730;SDS011;38624;53.242;6.974;2023-12-28T04:55:13;7.82;;;3.08;;
52730;SDS011;38624;53.242;6.974;2023-12-28T04:57:40;8.18;;;2.40;;
52730;SDS011;38624;53.242;6.974;2023-12-28T05:00:07;9.57;;;2.28;;
52730;SDS011;38624;53.242;6.974;2023-12-28T05:02:34;10.07;;;2.78;;
52730;SDS011;38624;53.242;6.974;2023-12-28T05:05:00;8.30;;;2.45;;
52730;SDS011;38624;53.242;6.974;2023-12-28T05:07:25;10.05;;;2.42;;
52730;SDS011;38624;53.242;6.974;2023-12-28T05:09:51;12.30;;;2.88;;
52730;SDS011;38624;53.242;6.974;2023-12-28T05:12:17;12.68;;;3.45;;
52730;SDS011;38624;53.242;6.974;2023-12-28T05:14:43;9.00;;;2.80;;
52730;SDS011;38624;53.242;6.974;2023-12-28T05:17:08;5.68;;;2.67;;
52730;SDS011;38624;53.242;6.974;2023-12-28T05:19:34;9.55;;;3.17;;
52730;SDS011;38624;53.242;6.974;2023-12-28T05:22:00;7.95;;;2.17;;
52730;SDS011;38624;53.242;6.974;2023-12-28T05:24:29;8.57;;;2.20;;
52730;SDS011;38624;53.242;6.974;2023-12-28T05:26:54;8.73;;;2.78;;
52730;SDS011;38624;53.242;6.974;2023-12-28T05:29:20;16.73;;;2.65;;
52730;SDS011;38624;53.242;6.974;2023-12-28T05:31:46;10.77;;;3.00;;
52730;SDS011;38624;53.242;6.974;2023-12-28T05:34:12;9.63;;;2.58;;
52730;SDS011;38624;53.242;6.974;2023-12-28T05:36:38;14.13;;;2.67;;
52730;SDS011;38624;53.242;6.974;2023-12-28T05:39:05;13.40;;;2.47;;
52730;SDS011;38624;53.242;6.974;2023-12-28T05:41:31;16.50;;;3.95;;
52730;SDS011;38624;53.242;6.974;2023-12-28T05:43:57;14.00;;;3.33;;
52730;SDS011;38624;53.242;6.974;2023-12-28T05:46:22;12.23;;;2.92;;
52730;SDS011;38624;53.242;6.974;2023-12-28T05:48:48;10.73;;;3.00;;
52730;SDS011;38624;53.242;6.974;2023-12-28T05:51:14;8.75;;;2.50;;
52730;SDS011;38624;53.242;6.974;2023-12-28T05:53:39;10.30;;;2.55;;
52730;SDS011;38624;53.242;6.974;2023-12-28T05:56:05;11.60;;;3.00;;
52730;SDS011;38624;53.242;6.974;2023-12-28T05:58:31;8.57;;;2.38;;
52730;SDS011;38624;53.242;6.974;2023-12-28T06:00:56;10.70;;;2.53;;
52730;SDS011;38624;53.242;6.974;2023-12-28T06:03:22;11.32;;;3.55;;
52730;SDS011;38624;53.242;6.974;2023-12-28T06:05:53;17.15;;;2.58;;
52730;SDS011;38624;53.242;6.974;2023-12-28T06:08:19;10.00;;;2.42;;
52730;SDS011;38624;53.242;6.974;2023-12-28T06:10:44;11.40;;;2.55;;
52730;SDS011;38624;53.242;6.974;2023-12-28T06:13:10;13.05;;;2.40;;
52730;SDS011;38624;53.242;6.974;2023-12-28T06:15:36;13.48;;;2.47;;
52730;SDS011;38624;53.242;6.974;2023-12-28T06:18:01;12.43;;;3.58;;
52730;SDS011;38624;53.242;6.974;2023-12-28T06:20:29;12.65;;;2.58;;
52730;SDS011;38624;53.242;6.974;2023-12-28T06:22:55;13.68;;;3.13;;
52730;SDS011;38624;53.242;6.974;2023-12-28T06:25:20;10.35;;;2.70;;
52730;SDS011;38624;53.242;6.974;2023-12-28T06:27:46;20.35;;;3.03;;
52730;SDS011;38624;53.242;6.974;2023-12-28T06:30:12;7.78;;;2.10;;
52730;SDS011;38624;53.242;6.974;2023-12-28T06:32:38;15.50;;;2.95;;
52730;SDS011;38624;53.242;6.974;2023-12-28T06:35:04;9.43;;;2.33;;
52730;SDS011;38624;53.242;6.974;2023-12-28T06:37:30;9.68;;;2.50;;
52730;SDS011;38624;53.242;6.974;2023-12-28T06:39:56;11.95;;;2.75;;
52730;SDS011;38624;53.242;6.974;2023-12-28T06:42:22;13.10;;;2.47;;
52730;SDS011;38624;53.242;6.974;2023-12-28T06:44:47;10.60;;;2.65;;
52730;SDS011;38624;53.242;6.974;2023-12-28T06:47:13;10.90;;;2.67;;
52730;SDS011;38624;53.242;6.974;2023-12-28T06:49:39;11.63;;;3.17;;
52730;SDS011;38624;53.242;6.974;2023-12-28T06:52:04;19.50;;;2.92;;
52730;SDS011;38624;53.242;6.974;2023-12-28T06:54:30;11.00;;;2.50;;
52730;SDS011;38624;53.242;6.974;2023-12-28T06:56:56;10.95;;;2.63;;
52730;SDS011;38624;53.242;6.974;2023-12-28T06:59:21;15.77;;;2.90;;
52730;SDS011;38624;53.242;6.974;2023-12-28T07:01:47;10.60;;;2.40;;
52730;SDS011;38624;53.242;6.974;2023-12-28T07:06:40;11.60;;;2.40;;
52730;SDS011;38624;53.242;6.974;2023-12-28T07:09:06;9.18;;;2.08;;
52730;SDS011;38624;53.242;6.974;2023-12-28T07:11:31;13.00;;;2.55;;
52730;SDS011;38624;53.242;6.974;2023-12-28T07:13:57;11.43;;;2.63;;
52730;SDS011;38624;53.242;6.974;2023-12-28T07:16:23;11.68;;;2.90;;
52730;SDS011;38624;53.242;6.974;2023-12-28T07:18:49;15.07;;;3.22;;
52730;SDS011;38624;53.242;6.974;2023-12-28T07:21:14;12.80;;;2.22;;
52730;SDS011;38624;53.242;6.974;2023-12-28T07:23:40;11.50;;;2.20;;
52730;SDS011;38624;53.242;6.974;2023-12-28T07:26:06;11.30;;;2.25;;
52730;SDS011;38624;53.242;6.974;2023-12-28T07:28:32;14.02;;;2.88;;
52730;SDS011;38624;53.242;6.974;2023-12-28T07:30:57;12.57;;;2.20;;
52730;SDS011;38624;53.242;6.974;2023-12-28T07:33:23;10.52;;;2.53;;
52730;SDS011;38624;53.242;6.974;2023-12-28T07:35:49;14.77;;;2.60;;
52730;SDS011;38624;53.242;6.974;2023-12-28T07:38:14;11.57;;;2.53;;
52730;SDS011;38624;53.242;6.974;2023-12-28T07:40:41;16.45;;;2.90;;
52730;SDS011;38624;53.242;6.974;2023-12-28T07:43:06;12.25;;;2.63;;
52730;SDS011;38624;53.242;6.974;2023-12-28T07:45:32;9.48;;;2.00;;
52730;SDS011;38624;53.242;6.974;2023-12-28T07:48:01;11.80;;;2.72;;
52730;SDS011;38624;53.242;6.974;2023-12-28T07:50:27;13.23;;;2.78;;
52730;SDS011;38624;53.242;6.974;2023-12-28T07:52:52;10.23;;;2.90;;
52730;SDS011;38624;53.242;6.974;2023-12-28T07:55:18;8.13;;;2.25;;
52730;SDS011;38624;53.242;6.974;2023-12-28T07:57:44;17.33;;;3.13;;
52730;SDS011;38624;53.242;6.974;2023-12-28T08:00:10;18.48;;;2.83;;
52730;SDS011;38624;53.242;6.974;2023-12-28T08:02:36;15.77;;;2.80;;
52730;SDS011;38624;53.242;6.974;2023-12-28T08:05:02;16.48;;;2.83;;
52730;SDS011;38624;53.242;6.974;2023-12-28T08:07:28;13.13;;;2.83;;
52730;SDS011;38624;53.242;6.974;2023-12-28T08:09:54;16.83;;;3.10;;
52730;SDS011;38624;53.242;6.974;2023-12-28T08:12:20;10.90;;;2.38;;
52730;SDS011;38624;53.242;6.974;2023-12-28T08:14:46;11.48;;;2.28;;
52730;SDS011;38624;53.242;6.974;2023-12-28T08:17:12;16.40;;;2.75;;
52730;SDS011;38624;53.242;6.974;2023-12-28T08:19:38;12.13;;;2.75;;
52730;SDS011;38624;53.242;6.974;2023-12-28T08:22:03;17.63;;;3.17;;
52730;SDS011;38624;53.242;6.974;2023-12-28T08:24:29;15.48;;;2.90;;
52730;SDS011;38624;53.242;6.974;2023-12-28T08:26:55;10.85;;;2.20;;
52730;SDS011;38624;53.242;6.974;2023-12-28T08:29:25;15.73;;;2.83;;
52730;SDS011;38624;53.242;6.974;2023-12-28T08:31:51;23.17;;;3.47;;
52730;SDS011;38624;53.242;6.974;2023-12-28T08:34:16;17.55;;;3.35;;
52730;SDS011;38624;53.242;6.974;2023-12-28T08:36:42;18.98;;;3.53;;
52730;SDS011;38624;53.242;6.974;2023-12-28T08:39:08;18.25;;;3.25;;
52730;SDS011;38624;53.242;6.974;2023-12-28T08:41:33;18.85;;;2.97;;
52730;SDS011;38624;53.242;6.974;2023-12-28T08:43:59;16.55;;;3.38;;
52730;SDS011;38624;53.242;6.974;2023-12-28T08:46:25;21.45;;;3.25;;
52730;SDS011;38624;53.242;6.974;2023-12-28T08:48:51;14.57;;;2.50;;
52730;SDS011;38624;53.242;6.974;2023-12-28T08:51:17;21.35;;;3.45;;
52730;SDS011;38624;53.242;6.974;2023-12-28T08:53:42;21.70;;;3.35;;
52730;SDS011;38624;53.242;6.974;2023-12-28T08:56:18;12.27;;;2.20;;
52730;SDS011;38624;53.242;6.974;2023-12-28T08:58:45;13.38;;;2.35;;
52730;SDS011;38624;53.242;6.974;2023-12-28T09:01:19;20.13;;;3.63;;
52730;SDS011;38624;53.242;6.974;2023-12-28T09:03:47;20.75;;;3.05;;
52730;SDS011;38624;53.242;6.974;2023-12-28T09:06:17;22.17;;;3.75;;
52730;SDS011;38624;53.242;6.974;2023-12-28T09:08:43;24.52;;;3.55;;
52730;SDS011;38624;53.242;6.974;2023-12-28T09:11:12;19.38;;;2.85;;
52730;SDS011;38624;53.242;6.974;2023-12-28T09:13:39;21.67;;;3.83;;
52730;SDS011;38624;53.242;6.974;2023-12-28T09:16:05;19.75;;;3.33;;
52730;SDS011;38624;53.242;6.974;2023-12-28T09:18:32;22.48;;;3.25;;
52730;SDS011;38624;53.242;6.974;2023-12-28T09:20:58;16.13;;;2.75;;
52730;SDS011;38624;53.242;6.974;2023-12-28T09:23:24;16.33;;;3.30;;
52730;SDS011;38624;53.242;6.974;2023-12-28T09:25:49;21.40;;;2.85;;
52730;SDS011;38624;53.242;6.974;2023-12-28T09:28:15;17.23;;;3.40;;
52730;SDS011;38624;53.242;6.974;2023-12-28T09:30:41;17.85;;;3.40;;
52730;SDS011;38624;53.242;6.974;2023-12-28T09:33:06;16.38;;;3.35;;
52730;SDS011;38624;53.242;6.974;2023-12-28T09:35:32;16.52;;;3.25;;
52730;SDS011;38624;53.242;6.974;2023-12-28T09:37:58;19.67;;;3.55;;
52730;SDS011;38624;53.242;6.974;2023-12-28T09:40:24;15.00;;;2.70;;
52730;SDS011;38624;53.242;6.974;2023-12-28T09:45:25;21.30;;;4.05;;
52730;SDS011;38624;53.242;6.974;2023-12-28T09:47:50;11.50;;;2.38;;
52730;SDS011;38624;53.242;6.974;2023-12-28T09:50:17;20.38;;;3.75;;
52730;SDS011;38624;53.242;6.974;2023-12-28T09:55:10;24.05;;;3.35;;
52730;SDS011;38624;53.242;6.974;2023-12-28T09:57:36;13.80;;;2.72;;
52730;SDS011;38624;53.242;6.974;2023-12-28T10:00:03;26.52;;;4.18;;
52730;SDS011;38624;53.242;6.974;2023-12-28T10:02:31;10.40;;;2.50;;
52730;SDS011;38624;53.242;6.974;2023-12-28T10:04:58;17.60;;;2.97;;
52730;SDS011;38624;53.242;6.974;2023-12-28T10:07:24;15.88;;;3.25;;
52730;SDS011;38624;53.242;6.974;2023-12-28T10:09:51;17.45;;;4.13;;
52730;SDS011;38624;53.242;6.974;2023-12-28T10:12:17;17.10;;;3.30;;
52730;SDS011;38624;53.242;6.974;2023-12-28T10:14:44;22.90;;;3.90;;
52730;SDS011;38624;53.242;6.974;2023-12-28T10:17:09;17.02;;;2.97;;
52730;SDS011;38624;53.242;6.974;2023-12-28T10:19:36;24.05;;;3.78;;
52730;SDS011;38624;53.242;6.974;2023-12-28T10:22:02;18.42;;;3.63;;
52730;SDS011;38624;53.242;6.974;2023-12-28T10:24:28;14.98;;;3.33;;
52730;SDS011;38624;53.242;6.974;2023-12-28T10:26:54;18.70;;;3.42;;
52730;SDS011;38624;53.242;6.974;2023-12-28T10:29:20;17.98;;;3.72;;
52730;SDS011;38624;53.242;6.974;2023-12-28T10:31:46;16.37;;;3.17;;
52730;SDS011;38624;53.242;6.974;2023-12-28T10:34:15;20.10;;;3.10;;
52730;SDS011;38624;53.242;6.974;2023-12-28T10:36:41;13.80;;;3.03;;
52730;SDS011;38624;53.242;6.974;2023-12-28T10:39:08;18.23;;;3.03;;
52730;SDS011;38624;53.242;6.974;2023-12-28T10:41:38;20.15;;;3.60;;
52730;SDS011;38624;53.242;6.974;2023-12-28T10:44:08;16.85;;;3.13;;
52730;SDS011;38624;53.242;6.974;2023-12-28T10:46:39;15.48;;;2.25;;
52730;SDS011;38624;53.242;6.974;2023-12-28T10:51:39;19.35;;;3.25;;
52730;SDS011;38624;53.242;6.974;2023-12-28T10:54:28;16.27;;;2.88;;
52730;SDS011;38624;53.242;6.974;2023-12-28T11:02:25;21.85;;;3.85;;
52730;SDS011;38624;53.242;6.974;2023-12-28T11:04:57;17.27;;;3.10;;
52730;SDS011;38624;53.242;6.974;2023-12-28T11:07:25;15.77;;;2.72;;
52730;SDS011;38624;53.242;6.974;2023-12-28T11:09:57;21.55;;;3.47;;
52730;SDS011;38624;53.242;6.974;2023-12-28T11:12:27;16.02;;;3.30;;
52730;SDS011;38624;53.242;6.974;2023-12-28T11:14:53;13.40;;;2.75;;
52730;SDS011;38624;53.242;6.974;2023-12-28T11:17:20;17.42;;;2.83;;
52730;SDS011;38624;53.242;6.974;2023-12-28T11:19:47;17.40;;;2.95;;
52730;SDS011;38624;53.242;6.974;2023-12-28T11:22:14;21.27;;;3.47;;
52730;SDS011;38624;53.242;6.974;2023-12-28T11:24:40;18.50;;;2.75;;
52730;SDS011;38624;53.242;6.974;2023-12-28T11:27:06;12.27;;;3.40;;
52730;SDS011;38624;53.242;6.974;2023-12-28T11:29:33;16.15;;;3.38;;
52730;SDS011;38624;53.242;6.974;2023-12-28T11:31:59;19.35;;;3.72;;
52730;SDS011;38624;53.242;6.974;2023-12-28T11:34:28;16.88;;;3.30;;
52730;SDS011;38624;53.242;6.974;2023-12-28T11:36:55;16.17;;;3.45;;
52730;SDS011;38624;53.242;6.974;2023-12-28T11:41:50;13.55;;;3.28;;
52730;SDS011;38624;53.242;6.974;2023-12-28T11:44:16;12.43;;;2.80;;
52730;SDS011;38624;53.242;6.974;2023-12-28T11:46:42;19.40;;;2.92;;
52730;SDS011;38624;53.242;6.974;2023-12-28T11:49:08;17.52;;;3.20;;
52730;SDS011;38624;53.242;6.974;2023-12-28T11:51:35;16.20;;;2.90;;
52730;SDS011;38624;53.242;6.974;2023-12-28T11:54:03;18.38;;;3.30;;
52730;SDS011;38624;53.242;6.974;2023-12-28T11:56:29;19.10;;;3.15;;
52730;SDS011;38624;53.242;6.974;2023-12-28T11:58:55;25.08;;;3.47;;
52730;SDS011;38624;53.242;6.974;2023-12-28T12:01:21;15.65;;;2.80;;
52730;SDS011;38624;53.242;6.974;2023-12-28T12:03:47;18.03;;;3.13;;
52730;SDS011;38624;53.242;6.974;2023-12-28T12:06:14;20.80;;;3.38;;
52730;SDS011;38624;53.242;6.974;2023-12-28T12:08:39;16.85;;;3.20;;
52730;SDS011;38624;53.242;6.974;2023-12-28T12:11:05;19.02;;;3.35;;
52730;SDS011;38624;53.242;6.974;2023-12-28T12:13:32;17.90;;;2.72;;
52730;SDS011;38624;53.242;6.974;2023-12-28T12:15:58;18.58;;;3.22;;
52730;SDS011;38624;53.242;6.974;2023-12-28T12:18:24;18.83;;;3.70;;
52730;SDS011;38624;53.242;6.974;2023-12-28T12:20:51;14.27;;;2.88;;
52730;SDS011;38624;53.242;6.974;2023-12-28T12:23:16;21.77;;;3.50;;
52730;SDS011;38624;53.242;6.974;2023-12-28T12:25:42;14.45;;;3.25;;
52730;SDS011;38624;53.242;6.974;2023-12-28T12:28:10;18.40;;;2.92;;
52730;SDS011;38624;53.242;6.974;2023-12-28T12:30:36;12.73;;;3.03;;
52730;SDS011;38624;53.242;6.974;2023-12-28T12:33:02;22.70;;;3.92;;
52730;SDS011;38624;53.242;6.974;2023-12-28T12:35:28;23.10;;;3.28;;
52730;SDS011;38624;53.242;6.974;2023-12-28T12:37:54;25.52;;;5.28;;
52730;SDS011;38624;53.242;6.974;2023-12-28T12:40:20;18.33;;;3.38;;
52730;SDS011;38624;53.242;6.974;2023-12-28T12:42:55;18.40;;;3.15;;
52730;SDS011;38624;53.242;6.974;2023-12-28T12:45:21;18.30;;;3.63;;
52730;SDS011;38624;53.242;6.974;2023-12-28T12:47:47;14.27;;;2.92;;
52730;SDS011;38624;53.242;6.974;2023-12-28T12:50:13;9.55;;;2.58;;
52730;SDS011;38624;53.242;6.974;2023-12-28T12:52:41;14.05;;;2.85;;
52730;SDS011;38624;53.242;6.974;2023-12-28T12:55:11;14.82;;;3.20;;
52730;SDS011;38624;53.242;6.974;2023-12-28T12:57:37;12.45;;;3.20;;
52730;SDS011;38624;53.242;6.974;2023-12-28T13:00:04;20.38;;;3.50;;
52730;SDS011;38624;53.242;6.974;2023-12-28T13:02:33;17.65;;;3.65;;
52730;SDS011;38624;53.242;6.974;2023-12-28T13:05:01;23.83;;;3.33;;
52730;SDS011;38624;53.242;6.974;2023-12-28T13:07:29;18.45;;;4.22;;
52730;SDS011;38624;53.242;6.974;2023-12-28T13:09:55;18.08;;;3.05;;
52730;SDS011;38624;53.242;6.974;2023-12-28T13:12:20;16.83;;;3.38;;
52730;SDS011;38624;53.242;6.974;2023-12-28T13:14:46;16.50;;;3.58;;
52730;SDS011;38624;53.242;6.974;2023-12-28T13:17:12;17.08;;;3.88;;
52730;SDS011;38624;53.242;6.974;2023-12-28T13:19:38;18.23;;;3.13;;
52730;SDS011;38624;53.242;6.974;2023-12-28T13:22:03;19.52;;;3.70;;
52730;SDS011;38624;53.242;6.974;2023-12-28T13:24:30;17.25;;;3.47;;
52730;SDS011;38624;53.242;6.974;2023-12-28T13:26:56;19.55;;;3.75;;
52730;SDS011;38624;53.242;6.974;2023-12-28T13:29:22;18.00;;;3.50;;
52730;SDS011;38624;53.242;6.974;2023-12-28T13:31:48;26.27;;;3.72;;
52730;SDS011;38624;53.242;6.974;2023-12-28T13:34:15;15.43;;;2.47;;
52730;SDS011;38624;53.242;6.974;2023-12-28T13:36:43;21.33;;;4.65;;
52730;SDS011;38624;53.242;6.974;2023-12-28T13:39:09;16.60;;;3.20;;
52730;SDS011;38624;53.242;6.974;2023-12-28T13:41:37;16.23;;;4.18;;
52730;SDS011;38624;53.242;6.974;2023-12-28T13:44:03;19.38;;;3.65;;
52730;SDS011;38624;53.242;6.974;2023-12-28T13:46:31;20.30;;;4.63;;
52730;SDS011;38624;53.242;6.974;2023-12-28T13:48:58;20.58;;;2.70;;
52730;SDS011;38624;53.242;6.974;2023-12-28T13:51:23;13.68;;;2.85;;
52730;SDS011;38624;53.242;6.974;2023-12-28T13:53:49;19.20;;;3.20;;
52730;SDS011;38624;53.242;6.974;2023-12-28T13:56:15;17.50;;;2.67;;
52730;SDS011;38624;53.242;6.974;2023-12-28T13:58:41;16.15;;;3.08;;
52730;SDS011;38624;53.242;6.974;2023-12-28T14:01:07;16.50;;;3.47;;
52730;SDS011;38624;53.242;6.974;2023-12-28T14:03:33;19.25;;;3.85;;
52730;SDS011;38624;53.242;6.974;2023-12-28T14:05:58;26.30;;;4.47;;
52730;SDS011;38624;53.242;6.974;2023-12-28T14:08:24;15.90;;;3.47;;
52730;SDS011;38624;53.242;6.974;2023-12-28T14:10:50;14.93;;;2.95;;
52730;SDS011;38624;53.242;6.974;2023-12-28T14:13:16;18.27;;;3.97;;
52730;SDS011;38624;53.242;6.974;2023-12-28T14:15:41;19.90;;;3.28;;
52730;SDS011;38624;53.242;6.974;2023-12-28T14:18:07;15.82;;;3.88;;
52730;SDS011;38624;53.242;6.974;2023-12-28T14:20:34;16.27;;;3.55;;
52730;SDS011;38624;53.242;6.974;2023-12-28T14:23:00;16.27;;;3.63;;
52730;SDS011;38624;53.242;6.974;2023-12-28T14:25:26;23.13;;;4.25;;
52730;SDS011;38624;53.242;6.974;2023-12-28T14:27:53;15.18;;;2.97;;
52730;SDS011;38624;53.242;6.974;2023-12-28T14:30:19;19.60;;;3.30;;
52730;SDS011;38624;53.242;6.974;2023-12-28T14:32:45;18.63;;;3.33;;
52730;SDS011;38624;53.242;6.974;2023-12-28T14:35:11;17.63;;;2.90;;
52730;SDS011;38624;53.242;6.974;2023-12-28T14:37:37;19.83;;;3.25;;
52730;SDS011;38624;53.242;6.974;2023-12-28T14:40:03;17.38;;;3.20;;
52730;SDS011;38624;53.242;6.974;2023-12-28T14:42:34;15.57;;;3.00;;
52730;SDS011;38624;53.242;6.974;2023-12-28T14:45:00;20.08;;;3.70;;
52730;SDS011;38624;53.242;6.974;2023-12-28T14:47:29;18.42;;;3.35;;
52730;SDS011;38624;53.242;6.974;2023-12-28T14:49:54;17.08;;;3.35;;